Terminal Aerodrome Forecast
Issued by NWS Sioux Falls, SD

Home | Current Version | Previous Version | Text Only | Print | Product List | Glossary Off
Versions: 1 2 3 4 5 6 7 8 9 10 11 12 13 14 15 16 17 18

000
FTUS43 KFSD 261120
TAFHON
TAF
KHON 261120Z 2612/2712 35012G18KT P6SM OVC012
     FM262000 36012G18KT P6SM SCT015 OVC025
     FM270600 34012G17KT P6SM SCT012 OVC050=

USA.gov is the U.S. government's official web portal to all federal, state and local government web resources and services.